createdAt,value
2022-09-04T00:01:15.129Z,99.90
2022-09-04T00:03:50.788Z,99.90
2022-09-04T00:06:24.906Z,99.90
2022-09-04T00:09:04.696Z,99.90
2022-09-04T00:11:47.535Z,99.90
2022-09-04T00:14:21.067Z,99.90
2022-09-04T00:16:57.328Z,99.90
2022-09-04T00:19:32.212Z,99.90
2022-09-04T00:22:02.411Z,99.90
2022-09-04T00:24:33.598Z,99.90
2022-09-04T00:27:09.068Z,99.90
2022-09-04T00:29:44.778Z,99.90
2022-09-04T00:32:23.279Z,99.90
2022-09-04T00:35:05.454Z,99.90
2022-09-04T00:37:37.534Z,99.90
2022-09-04T00:40:10.887Z,99.90
2022-09-04T00:43:08.069Z,99.90
2022-09-04T00:45:56.765Z,99.90
2022-09-04T00:48:40.704Z,99.90
2022-09-04T00:51:22.460Z,99.90
2022-09-04T00:54:10.463Z,99.90
2022-09-04T00:57:10.071Z,99.90
2022-09-04T00:59:56.735Z,99.90
2022-09-04T01:02:33.619Z,99.90
2022-09-04T01:05:22.757Z,99.90
2022-09-04T01:07:58.719Z,99.90
2022-09-04T01:10:40.822Z,99.90
2022-09-04T01:13:13.130Z,99.90
2022-09-04T01:15:46.447Z,99.90
2022-09-04T01:18:20.578Z,99.90
2022-09-04T01:21:11.895Z,99.90
2022-09-04T01:23:58.266Z,99.90
2022-09-04T01:26:37.341Z,99.90
2022-09-04T01:29:17.110Z,99.90
2022-09-04T01:31:53.854Z,99.90
2022-09-04T01:34:37.107Z,99.90
2022-09-04T01:37:21.249Z,99.90
2022-09-04T01:39:57.761Z,99.90
2022-09-04T01:42:40.398Z,99.90
2022-09-04T01:45:09.004Z,99.90
2022-09-04T01:47:44.363Z,99.90
2022-09-04T01:50:17.614Z,99.90
2022-09-04T01:52:53.124Z,99.90
2022-09-04T01:55:31.541Z,99.90
2022-09-04T01:58:11.580Z,99.90
2022-09-04T02:00:50.227Z,99.90
2022-09-04T02:03:27.745Z,99.90
2022-09-04T02:06:06.204Z,99.90
2022-09-04T02:08:44.636Z,99.90
2022-09-04T02:11:18.038Z,99.90
2022-09-04T02:14:22.204Z,99.90
2022-09-04T02:17:07.959Z,99.90
2022-09-04T02:19:51.518Z,99.90
2022-09-04T02:22:27.595Z,99.90
2022-09-04T02:25:05.874Z,99.90
2022-09-04T02:27:42.493Z,99.90
2022-09-04T02:30:13.698Z,99.90
2022-09-04T02:32:50.255Z,99.90
2022-09-04T02:35:24.558Z,99.90
2022-09-04T02:38:04.252Z,99.90
2022-09-04T02:40:39.573Z,99.90
2022-09-04T02:43:21.460Z,99.90
2022-09-04T02:45:59.278Z,99.90
2022-09-04T02:48:40.274Z,99.90
2022-09-04T02:51:20.825Z,99.90
2022-09-04T02:54:00.634Z,99.90
2022-09-04T02:56:40.800Z,99.90
2022-09-04T02:59:21.217Z,99.90
2022-09-04T03:01:57.600Z,99.90
2022-09-04T03:04:32.933Z,99.90
2022-09-04T03:07:09.293Z,99.90
2022-09-04T03:09:41.547Z,99.90
2022-09-04T03:12:27.330Z,99.90
2022-09-04T03:15:04.010Z,99.90
2022-09-04T03:17:41.062Z,99.90
2022-09-04T03:20:14.574Z,99.90
2022-09-04T03:22:49.651Z,99.90
2022-09-04T03:26:00.199Z,99.90
2022-09-04T03:28:39.623Z,99.90
2022-09-04T03:31:20.610Z,99.90
2022-09-04T03:33:57.708Z,99.90
2022-09-04T03:36:34.013Z,99.90
2022-09-04T03:39:06.546Z,99.90
2022-09-04T03:41:43.868Z,99.90
2022-09-04T03:44:23.053Z,99.90
2022-09-04T03:47:02.550Z,99.90
2022-09-04T03:49:44.661Z,99.90
2022-09-04T03:52:21.332Z,99.90
2022-09-04T03:55:17.635Z,99.90
2022-09-04T03:58:00.719Z,99.90
2022-09-04T04:00:38.071Z,99.90
2022-09-04T04:03:17.751Z,99.90
2022-09-04T04:05:56.645Z,99.90
2022-09-04T04:08:45.366Z,99.90
2022-09-04T04:11:43.219Z,99.90
2022-09-04T04:14:31.035Z,99.90
2022-09-04T04:17:20.650Z,99.90
2022-09-04T04:20:04.490Z,99.90
2022-09-04T04:22:50.724Z,99.90
2022-09-04T04:25:52.803Z,99.90
2022-09-04T04:28:38.549Z,99.90
2022-09-04T04:31:18.032Z,99.90
2022-09-04T04:33:57.761Z,99.90
2022-09-04T04:36:32.790Z,99.90
2022-09-04T04:39:15.584Z,99.90
2022-09-04T04:42:07.467Z,99.90
2022-09-04T04:45:14.984Z,99.90
2022-09-04T04:48:15.055Z,99.90
2022-09-04T04:50:49.781Z,99.90
2022-09-04T04:53:23.667Z,99.90
2022-09-04T04:55:58.340Z,99.90
2022-09-04T04:58:42.220Z,99.90
2022-09-04T05:01:18.961Z,99.90
2022-09-04T05:04:03.478Z,99.90
2022-09-04T05:06:37.759Z,99.90
2022-09-04T05:09:19.004Z,99.90
2022-09-04T05:11:57.915Z,99.90
2022-09-04T05:14:49.765Z,99.90
2022-09-04T05:17:27.373Z,99.90
2022-09-04T05:20:19.445Z,99.90
2022-09-04T05:22:54.289Z,99.90
2022-09-04T05:25:28.065Z,99.90
2022-09-04T05:28:08.428Z,99.90
2022-09-04T05:30:44.894Z,99.90
2022-09-04T05:33:21.048Z,99.90
2022-09-04T05:35:56.866Z,99.90
2022-09-04T05:38:31.818Z,99.90
2022-09-04T05:41:06.611Z,99.90
2022-09-04T05:43:58.736Z,99.90
2022-09-04T05:46:39.893Z,99.90
2022-09-04T05:49:18.947Z,99.90
2022-09-04T05:52:22.474Z,99.90
2022-09-04T05:55:23.239Z,99.90
2022-09-04T05:58:10.831Z,99.90
2022-09-04T06:00:52.140Z,99.90
2022-09-04T06:03:52.566Z,99.90
2022-09-04T06:06:26.854Z,99.90
2022-09-04T06:09:11.114Z,99.90
2022-09-04T06:11:57.339Z,99.90
2022-09-04T06:14:36.787Z,99.90
2022-09-04T06:17:30.172Z,99.90
2022-09-04T06:20:11.435Z,99.90
2022-09-04T06:23:03.154Z,99.90
2022-09-04T06:25:58.977Z,99.90
2022-09-04T06:28:57.095Z,99.90
2022-09-04T06:31:47.053Z,99.90
2022-09-04T06:34:23.339Z,99.90
2022-09-04T06:37:01.070Z,99.90
2022-09-04T06:39:46.138Z,99.90
2022-09-04T06:42:28.356Z,99.90
2022-09-04T06:45:06.282Z,99.90
2022-09-04T06:47:46.391Z,99.90
2022-09-04T06:50:24.630Z,99.90
2022-09-04T06:53:14.920Z,99.90
2022-09-04T06:55:58.703Z,99.90
2022-09-04T06:58:50.075Z,99.90
2022-09-04T07:01:23.930Z,99.90
2022-09-04T07:04:04.466Z,99.90
2022-09-04T07:06:48.433Z,99.90
2022-09-04T07:09:21.200Z,99.90
2022-09-04T07:12:06.711Z,99.90
2022-09-04T07:15:14.766Z,99.90
2022-09-04T07:18:01.213Z,99.90
2022-09-04T07:20:37.347Z,99.90
2022-09-04T07:23:25.020Z,99.90
2022-09-04T07:26:03.756Z,99.90
2022-09-04T07:28:43.041Z,99.90
2022-09-04T07:31:17.887Z,99.90
2022-09-04T07:33:54.150Z,99.90
2022-09-04T07:36:33.184Z,99.90
2022-09-04T07:39:08.916Z,99.90
2022-09-04T07:41:45.191Z,99.90
2022-09-04T07:44:24.199Z,99.90
2022-09-04T07:47:00.424Z,99.90
2022-09-04T07:49:36.116Z,99.90
2022-09-04T07:52:14.536Z,99.90
2022-09-04T07:55:07.825Z,99.90
2022-09-04T07:58:00.040Z,99.90
2022-09-04T08:00:29.037Z,99.90
2022-09-04T08:03:17.003Z,99.90
2022-09-04T08:05:50.562Z,99.90
2022-09-04T08:08:53.444Z,99.90
2022-09-04T08:11:47.428Z,99.90
2022-09-04T08:14:29.919Z,99.90
2022-09-04T08:17:49.855Z,99.90
2022-09-04T08:20:36.050Z,99.90
2022-09-04T08:23:21.324Z,99.90
2022-09-04T08:26:01.845Z,99.90
2022-09-04T08:28:46.729Z,99.90
2022-09-04T08:31:26.625Z,99.90
2022-09-04T08:34:14.327Z,99.90
2022-09-04T08:36:50.252Z,99.90
2022-09-04T08:42:34.376Z,99.90
2022-09-04T08:45:42.493Z,99.90
2022-09-04T08:48:53.917Z,99.90
2022-09-04T08:51:58.508Z,99.90
2022-09-04T08:54:49.765Z,99.90
2022-09-04T08:57:58.721Z,99.90
2022-09-04T09:00:36.950Z,99.90
2022-09-04T09:03:40.650Z,99.90
2022-09-04T09:06:34.235Z,99.90
2022-09-04T09:09:45.951Z,99.90
2022-09-04T09:12:57.593Z,99.90
2022-09-04T09:15:52.542Z,99.90
2022-09-04T09:18:40.462Z,99.90
2022-09-04T09:21:11.508Z,99.90
2022-09-04T09:23:55.850Z,99.90
2022-09-04T09:26:29.155Z,99.90
2022-09-04T09:29:35.009Z,99.90
2022-09-04T09:32:36.345Z,99.90
2022-09-04T09:35:41.949Z,99.90
2022-09-04T09:38:51.534Z,99.90
2022-09-04T09:41:51.637Z,99.90
2022-09-04T09:45:07.801Z,99.90
2022-09-04T09:48:07.765Z,99.90
2022-09-04T09:51:02.783Z,99.90
2022-09-04T09:54:12.868Z,99.90
2022-09-04T09:57:29.682Z,99.90
2022-09-04T10:00:17.400Z,99.90
2022-09-04T10:03:18.016Z,99.90
2022-09-04T10:06:29.117Z,99.90
2022-09-04T10:09:43.135Z,99.90
2022-09-04T10:12:50.547Z,99.90
2022-09-04T10:16:12.704Z,99.90
2022-09-04T10:19:16.888Z,99.90
2022-09-04T10:22:29.665Z,99.90
2022-09-04T10:25:44.828Z,99.90
2022-09-04T10:29:02.499Z,99.90
2022-09-04T10:32:02.959Z,99.90
2022-09-04T10:34:59.479Z,99.90
2022-09-04T10:38:04.418Z,99.90
2022-09-04T10:40:46.951Z,99.90
2022-09-04T10:43:35.831Z,99.90
2022-09-04T10:46:13.850Z,99.90
2022-09-04T10:49:30.333Z,99.90
2022-09-04T10:52:14.816Z,99.90
2022-09-04T10:55:10.216Z,99.90
2022-09-04T10:58:06.191Z,99.90
2022-09-04T11:00:50.054Z,99.90
2022-09-04T11:04:02.866Z,99.90
2022-09-04T11:07:04.163Z,99.90
2022-09-04T11:10:06.564Z,99.90
2022-09-04T11:12:48.528Z,99.90
2022-09-04T11:15:37.810Z,99.90
2022-09-04T11:18:45.539Z,99.90
2022-09-04T11:22:05.062Z,99.90
2022-09-04T11:25:10.179Z,99.90
2022-09-04T11:28:13.546Z,99.90
2022-09-04T11:31:05.450Z,99.90
2022-09-04T11:34:16.027Z,99.90
2022-09-04T11:37:26.650Z,99.90
2022-09-04T11:40:35.946Z,99.90
2022-09-04T11:43:19.700Z,99.90
2022-09-04T11:46:19.338Z,99.90
2022-09-04T11:49:23.049Z,99.90
2022-09-04T11:52:13.801Z,99.90
2022-09-04T11:55:19.962Z,99.90
2022-09-04T11:57:59.295Z,99.90
2022-09-04T12:00:39.115Z,99.90
2022-09-04T12:03:38.481Z,99.90
2022-09-04T12:06:20.683Z,99.90
2022-09-04T12:09:21.918Z,99.90
2022-09-04T12:12:26.798Z,99.90
2022-09-04T12:15:13.425Z,99.90
2022-09-04T12:18:26.399Z,99.90
2022-09-04T12:21:20.058Z,99.90
2022-09-04T12:24:21.086Z,99.90
2022-09-04T12:27:17.111Z,99.90
2022-09-04T12:30:07.882Z,99.90
2022-09-04T12:33:08.298Z,98.60
2022-09-04T12:36:14.401Z,99.60
2022-09-04T12:39:31.668Z,99.90
2022-09-04T12:42:06.316Z,99.20
2022-09-04T12:44:44.868Z,97.90
2022-09-04T12:47:25.798Z,95.70
2022-09-04T12:50:05.835Z,94.70
2022-09-04T12:52:48.413Z,94.50
2022-09-04T12:55:31.427Z,93.60
2022-09-04T12:58:13.365Z,91.40
2022-09-04T13:00:49.621Z,94.00
2022-09-04T13:03:28.851Z,94.10
2022-09-04T13:06:12.412Z,94.00
2022-09-04T13:08:52.405Z,91.70
2022-09-04T13:11:35.100Z,92.30
2022-09-04T13:14:27.335Z,93.20
2022-09-04T13:17:06.420Z,92.70
2022-09-04T13:19:45.951Z,91.70
2022-09-04T13:22:27.597Z,90.30
2022-09-04T13:25:04.876Z,91.20
2022-09-04T13:28:02.267Z,89.60
2022-09-04T13:30:32.127Z,89.80
2022-09-04T13:33:20.431Z,85.80
2022-09-04T13:36:03.227Z,88.80
2022-09-04T13:39:01.044Z,78.30
2022-09-04T13:42:06.594Z,78.90
2022-09-04T13:45:01.930Z,78.80
2022-09-04T13:47:36.553Z,80.20
2022-09-04T13:50:10.172Z,86.00
2022-09-04T13:52:45.338Z,84.70
2022-09-04T13:55:18.994Z,83.90
2022-09-04T13:57:57.429Z,78.70
2022-09-04T14:00:28.831Z,79.10
2022-09-04T14:03:03.605Z,79.50
2022-09-04T14:05:34.260Z,76.80
2022-09-04T14:08:05.659Z,80.90
2022-09-04T14:11:19.879Z,78.90
2022-09-04T14:14:11.376Z,83.20
2022-09-04T14:16:43.908Z,82.90
2022-09-04T14:19:32.085Z,78.00
2022-09-04T14:22:24.959Z,79.90
2022-09-04T14:25:06.591Z,79.60
2022-09-04T14:27:49.997Z,83.70
2022-09-04T14:30:22.303Z,84.40
2022-09-04T14:33:06.231Z,82.80
2022-09-04T14:35:46.815Z,84.20
2022-09-04T14:38:41.153Z,85.10
2022-09-04T14:41:21.570Z,84.80
2022-09-04T14:44:03.669Z,85.50
2022-09-04T14:46:38.310Z,84.60
2022-09-04T14:49:11.667Z,79.00
2022-09-04T14:51:43.769Z,83.70
2022-09-04T14:54:18.718Z,83.20
2022-09-04T14:56:49.985Z,82.60
2022-09-04T14:59:24.395Z,80.80
2022-09-04T15:02:03.802Z,78.20
2022-09-04T15:04:46.644Z,80.40
2022-09-04T15:07:39.276Z,83.60
2022-09-04T15:10:15.214Z,82.70
2022-09-04T15:12:50.882Z,81.00
2022-09-04T15:15:23.947Z,79.50
2022-09-04T15:17:56.441Z,80.70
2022-09-04T15:20:28.652Z,82.50
2022-09-04T15:23:00.608Z,83.40
2022-09-04T15:25:58.122Z,80.30
2022-09-04T15:28:31.814Z,80.50
2022-09-04T15:31:10.905Z,78.80
2022-09-04T15:33:42.982Z,79.60
2022-09-04T15:36:18.175Z,75.50
2022-09-04T15:38:53.415Z,77.00
2022-09-04T15:41:36.014Z,76.20
2022-09-04T15:44:16.271Z,75.10
2022-09-04T15:46:51.408Z,74.70
2022-09-04T15:49:31.359Z,76.80
2022-09-04T15:52:14.160Z,74.30
2022-09-04T15:55:09.293Z,73.50
2022-09-04T15:57:56.254Z,68.00
2022-09-04T16:00:26.588Z,72.50
2022-09-04T16:03:03.284Z,71.90
2022-09-04T16:05:41.504Z,67.60
2022-09-04T16:08:21.685Z,74.20
2022-09-04T16:10:57.663Z,73.30
2022-09-04T16:13:42.943Z,73.20
2022-09-04T16:16:15.500Z,73.70
2022-09-04T16:18:58.510Z,71.80
2022-09-04T16:21:40.696Z,74.00
2022-09-04T16:24:15.292Z,72.60
2022-09-04T16:26:49.289Z,70.10
2022-09-04T16:29:27.754Z,74.80
2022-09-04T16:31:58.909Z,72.70
2022-09-04T16:34:32.013Z,71.90
2022-09-04T16:37:09.666Z,73.70
2022-09-04T16:39:51.243Z,69.00
2022-09-04T16:42:25.080Z,72.50
2022-09-04T16:44:58.674Z,73.00
2022-09-04T16:47:37.143Z,68.80
2022-09-04T16:50:17.417Z,70.60
2022-09-04T16:52:58.600Z,71.00
2022-09-04T16:55:48.869Z,69.60
2022-09-04T16:58:34.990Z,71.40
2022-09-04T17:01:14.501Z,71.10
2022-09-04T17:03:52.620Z,68.70
2022-09-04T17:06:46.087Z,70.10
2022-09-04T17:09:27.091Z,72.10
2022-09-04T17:12:03.586Z,74.50
2022-09-04T17:14:36.888Z,72.90
2022-09-04T17:17:08.960Z,74.60
2022-09-04T17:20:05.635Z,77.00
2022-09-04T17:28:54.183Z,77.10
2022-09-04T17:29:11.751Z,79.80
2022-09-04T17:29:17.546Z,83.00
2022-09-04T17:31:51.195Z,85.60
2022-09-04T17:40:31.838Z,87.40
2022-09-04T17:40:40.821Z,89.30
2022-09-04T17:40:54.282Z,91.20
2022-09-04T17:43:22.402Z,91.90
2022-09-04T17:46:06.713Z,91.90
2022-09-04T17:48:40.731Z,92.20
2022-09-04T17:51:15.346Z,92.30
2022-09-04T17:53:51.616Z,92.80
2022-09-04T17:56:28.220Z,92.90
2022-09-04T17:59:02.991Z,93.60
2022-09-04T18:01:40.015Z,93.20
2022-09-04T18:04:23.881Z,94.00
2022-09-04T18:06:58.182Z,94.90
2022-09-04T18:09:34.129Z,94.70
2022-09-04T18:12:11.017Z,95.00
2022-09-04T18:14:45.483Z,95.30
2022-09-04T18:17:23.382Z,95.50
2022-09-04T18:19:57.387Z,95.60
2022-09-04T18:22:33.463Z,96.00
2022-09-04T18:25:14.364Z,96.10
2022-09-04T18:28:06.305Z,96.70
2022-09-04T18:37:15.638Z,97.80
2022-09-04T18:37:15.975Z,99.00
2022-09-04T18:37:55.781Z,99.00
2022-09-04T18:43:29.800Z,98.90
2022-09-04T18:48:31.944Z,98.70
2022-09-04T18:50:35.599Z,98.10
2022-09-04T18:50:44.808Z,99.10
2022-09-04T18:52:30.174Z,98.30
2022-09-04T18:55:03.361Z,98.70
2022-09-04T18:57:36.214Z,99.20
2022-09-04T19:00:10.182Z,99.50
2022-09-04T19:02:53.507Z,99.60
2022-09-04T19:05:25.990Z,99.90
2022-09-04T19:07:57.858Z,99.00
2022-09-04T19:10:29.146Z,99.40
2022-09-04T19:13:02.943Z,99.90
2022-09-04T19:15:37.847Z,99.90
2022-09-04T19:18:18.158Z,99.90
2022-09-04T19:20:50.337Z,99.90
2022-09-04T19:23:27.744Z,99.90
2022-09-04T19:26:00.142Z,99.70
2022-09-04T19:28:40.486Z,99.90
2022-09-04T19:31:26.488Z,99.90
2022-09-04T19:34:00.969Z,99.80
2022-09-04T19:36:38.206Z,99.90
2022-09-04T19:46:07.638Z,99.90
2022-09-04T19:46:09.322Z,99.90
2022-09-04T19:46:13.883Z,99.90
2022-09-04T19:48:20.808Z,99.90
2022-09-04T19:53:19.047Z,99.90
2022-09-04T19:53:52.831Z,99.90
2022-09-04T19:56:32.460Z,99.90
2022-09-04T19:59:12.615Z,99.90
2022-09-04T20:01:49.525Z,99.90
2022-09-04T20:04:30.092Z,99.90
2022-09-04T20:07:02.724Z,99.90
2022-09-04T20:09:37.484Z,99.90
2022-09-04T20:12:20.776Z,99.90
2022-09-04T20:14:55.121Z,99.90
2022-09-04T20:17:52.523Z,99.90
2022-09-04T20:20:24.709Z,99.90
2022-09-04T20:22:56.305Z,99.90
2022-09-04T20:25:43.864Z,99.90
2022-09-04T20:28:24.776Z,99.90
2022-09-04T20:31:35.569Z,99.90
2022-09-04T20:34:17.338Z,99.90
2022-09-04T20:36:51.231Z,99.90
2022-09-04T20:39:24.803Z,99.90
2022-09-04T20:41:58.796Z,99.90
2022-09-04T20:44:42.714Z,99.90
2022-09-04T20:52:41.379Z,99.90
2022-09-04T20:52:59.848Z,99.90
2022-09-04T20:53:31.584Z,99.90
2022-09-04T20:56:32.957Z,99.90
2022-09-04T21:03:13.511Z,99.90
2022-09-04T21:03:21.232Z,99.90
2022-09-04T21:05:23.442Z,99.90
2022-09-04T21:07:57.950Z,99.90
2022-09-04T21:10:32.847Z,99.90
2022-09-04T21:13:14.483Z,99.90
2022-09-04T21:15:52.901Z,99.90
2022-09-04T21:19:28.270Z,99.90
2022-09-04T21:22:24.482Z,99.90
2022-09-04T21:25:37.762Z,99.90
2022-09-04T21:28:36.465Z,99.90
2022-09-04T21:31:14.111Z,99.90
2022-09-04T21:33:57.612Z,99.90
2022-09-04T21:36:31.070Z,99.90
2022-09-04T21:39:32.367Z,99.90
2022-09-04T21:42:34.609Z,99.90
2022-09-04T21:45:31.672Z,99.90
2022-09-04T21:48:41.084Z,99.90
2022-09-04T21:51:33.300Z,99.90
2022-09-04T21:58:35.383Z,99.90
2022-09-04T22:02:27.649Z,99.90
2022-09-04T22:02:38.834Z,99.90
2022-09-04T22:04:05.899Z,99.90
2022-09-04T22:07:20.908Z,99.90
2022-09-04T22:13:29.893Z,99.90
2022-09-04T22:13:43.095Z,99.90
2022-09-04T22:16:01.969Z,99.90
2022-09-04T22:18:48.597Z,99.90
2022-09-04T22:21:26.041Z,99.90
2022-09-04T22:24:18.588Z,99.90
2022-09-04T22:27:21.935Z,99.90
2022-09-04T22:30:04.523Z,99.90
2022-09-04T22:32:59.213Z,99.90
2022-09-04T22:36:03.563Z,99.90
2022-09-04T22:38:44.846Z,99.90
2022-09-04T22:41:39.139Z,99.90
2022-09-04T22:44:21.543Z,99.90
2022-09-04T22:47:22.901Z,99.90
2022-09-04T22:50:07.641Z,99.90
2022-09-04T22:53:00.027Z,99.90
2022-09-04T22:56:05.287Z,99.90
2022-09-04T22:59:23.876Z,99.90
2022-09-04T23:07:02.002Z,99.90
2022-09-04T23:13:44.174Z,99.90
2022-09-04T23:13:57.901Z,99.90
2022-09-04T23:15:39.427Z,99.90
2022-09-04T23:20:40.032Z,99.90
2022-09-04T23:26:42.784Z,99.90
2022-09-04T23:26:53.817Z,99.90
2022-09-04T23:27:52.529Z,99.90
2022-09-04T23:30:25.144Z,99.90
2022-09-04T23:33:37.210Z,99.90
2022-09-04T23:36:34.968Z,99.90
2022-09-04T23:39:29.810Z,99.90
2022-09-04T23:42:14.314Z,99.90
2022-09-04T23:44:59.750Z,99.90
2022-09-04T23:47:57.331Z,99.90
2022-09-04T23:50:45.215Z,99.90
2022-09-04T23:53:21.751Z,99.90
2022-09-04T23:56:15.033Z,99.90
2022-09-04T23:59:18.951Z,99.90
